createdAt,value
2019-03-27T00:02:02.605Z,4.20
2019-03-27T00:04:47.799Z,4.20
2019-03-27T00:07:32.286Z,4.10
2019-03-27T00:10:17.507Z,4.00
2019-03-27T00:13:03.105Z,4.00
2019-03-27T00:15:47.807Z,3.90
2019-03-27T00:18:32.971Z,3.90
2019-03-27T00:21:17.610Z,3.90
2019-03-27T00:24:02.516Z,3.80
2019-03-27T00:26:47.556Z,3.80
2019-03-27T00:29:32.255Z,3.70
2019-03-27T00:32:17.081Z,3.70
2019-03-27T00:35:03.891Z,3.60
2019-03-27T00:37:48.750Z,3.60
2019-03-27T00:40:33.415Z,3.60
2019-03-27T00:43:17.850Z,3.60
2019-03-27T00:46:02.606Z,3.50
2019-03-27T00:48:47.089Z,3.50
2019-03-27T00:51:31.750Z,3.50
2019-03-27T00:54:16.669Z,3.50
2019-03-27T00:57:01.251Z,3.40
2019-03-27T00:59:45.912Z,3.40
2019-03-27T01:02:30.550Z,3.40
2019-03-27T01:05:15.482Z,3.40
2019-03-27T01:08:00.074Z,3.40
2019-03-27T01:10:44.740Z,3.30
2019-03-27T01:13:29.346Z,3.40
2019-03-27T01:16:13.852Z,3.30
2019-03-27T01:18:58.435Z,3.30
2019-03-27T01:21:43.601Z,3.30
2019-03-27T01:24:27.981Z,3.20
2019-03-27T01:27:12.780Z,3.20
2019-03-27T01:29:57.752Z,3.20
2019-03-27T01:32:42.226Z,3.20
2019-03-27T01:35:27.040Z,3.20
2019-03-27T01:38:11.354Z,3.20
2019-03-27T01:40:55.856Z,3.20
2019-03-27T01:43:40.610Z,3.30
2019-03-27T01:46:25.249Z,3.20
2019-03-27T01:49:10.170Z,3.30
2019-03-27T01:51:54.680Z,3.40
2019-03-27T01:54:39.308Z,3.40
2019-03-27T01:57:24.467Z,3.40
2019-03-27T02:00:09.729Z,3.40
2019-03-27T02:02:54.505Z,3.50
2019-03-27T02:05:39.174Z,3.60
2019-03-27T02:08:23.850Z,3.60
2019-03-27T02:11:08.924Z,3.60
2019-03-27T02:13:53.474Z,3.70
2019-03-27T02:16:37.987Z,3.60
2019-03-27T02:19:22.821Z,3.60
2019-03-27T02:22:10.060Z,3.60
2019-03-27T02:24:54.979Z,3.50
2019-03-27T02:27:39.572Z,3.50
2019-03-27T02:30:24.209Z,3.60
2019-03-27T02:33:09.024Z,3.70
2019-03-27T02:35:53.972Z,3.70
2019-03-27T02:38:38.780Z,3.70
2019-03-27T02:41:23.840Z,3.70
2019-03-27T02:44:08.540Z,3.70
2019-03-27T02:46:53.134Z,3.70
2019-03-27T02:49:38.095Z,3.80
2019-03-27T02:52:22.743Z,3.90
2019-03-27T02:55:10.789Z,4.00
2019-03-27T02:57:55.518Z,4.00
2019-03-27T03:00:40.704Z,4.10
2019-03-27T03:03:25.460Z,4.10
2019-03-27T03:06:10.277Z,4.10
2019-03-27T03:08:55.138Z,4.20
2019-03-27T03:11:39.829Z,4.30
2019-03-27T03:14:24.971Z,4.30
2019-03-27T03:17:10.072Z,4.30
2019-03-27T03:19:55.223Z,4.30
2019-03-27T03:22:40.009Z,4.40
2019-03-27T03:25:25.067Z,4.30
2019-03-27T03:28:10.291Z,4.40
2019-03-27T03:30:55.211Z,4.30
2019-03-27T03:33:39.991Z,4.40
2019-03-27T03:36:25.070Z,4.50
2019-03-27T03:39:09.671Z,4.60
2019-03-27T03:41:54.251Z,4.60
2019-03-27T03:44:39.155Z,4.70
2019-03-27T03:47:23.853Z,4.70
2019-03-27T03:50:19.202Z,4.70
2019-03-27T03:53:06.383Z,4.70
2019-03-27T03:55:51.641Z,4.80
2019-03-27T03:58:37.357Z,4.80
2019-03-27T04:01:25.409Z,4.90
2019-03-27T04:04:12.145Z,5.00
2019-03-27T04:06:57.239Z,4.90
2019-03-27T04:09:42.324Z,4.90
2019-03-27T04:12:27.287Z,5.00
2019-03-27T04:15:12.068Z,5.00
2019-03-27T04:17:57.055Z,5.00
2019-03-27T04:20:42.082Z,5.00
2019-03-27T04:23:26.675Z,5.00
2019-03-27T04:26:11.890Z,5.10
2019-03-27T04:28:57.069Z,5.20
2019-03-27T04:31:41.871Z,5.20
2019-03-27T04:34:26.370Z,5.20
2019-03-27T04:37:11.059Z,5.20
2019-03-27T04:39:55.613Z,5.20
2019-03-27T04:42:40.469Z,5.20
2019-03-27T04:45:25.330Z,5.30
2019-03-27T04:48:10.242Z,5.30
2019-03-27T04:50:55.328Z,5.40
2019-03-27T04:53:40.439Z,5.40
2019-03-27T04:56:24.874Z,5.40
2019-03-27T04:59:09.502Z,5.40
2019-03-27T05:01:54.484Z,5.40
2019-03-27T05:04:39.309Z,5.40
2019-03-27T05:07:24.554Z,5.40
2019-03-27T05:10:09.266Z,5.50
2019-03-27T05:12:54.393Z,5.50
2019-03-27T05:15:39.099Z,5.60
2019-03-27T05:18:23.505Z,5.60
2019-03-27T05:21:08.531Z,5.60
2019-03-27T05:23:53.695Z,5.60
2019-03-27T05:26:38.209Z,5.60
2019-03-27T05:29:23.091Z,5.60
2019-03-27T05:32:08.092Z,5.60
2019-03-27T05:34:52.960Z,5.50
2019-03-27T05:37:37.836Z,5.50
2019-03-27T05:40:22.996Z,5.50
2019-03-27T05:43:08.015Z,5.60
2019-03-27T05:45:52.786Z,5.70
2019-03-27T05:48:37.403Z,5.70
2019-03-27T05:51:22.001Z,5.80
2019-03-27T05:54:06.581Z,5.80
2019-03-27T05:56:51.175Z,5.80
2019-03-27T05:59:36.360Z,5.80
2019-03-27T06:02:21.740Z,5.90
2019-03-27T06:05:07.492Z,5.90
2019-03-27T06:07:52.397Z,5.90
2019-03-27T06:10:37.039Z,6.00
2019-03-27T06:13:22.154Z,6.00
2019-03-27T06:16:06.774Z,6.10
2019-03-27T06:18:51.645Z,6.00
2019-03-27T06:21:36.509Z,6.10
2019-03-27T06:24:21.233Z,6.10
2019-03-27T06:27:06.110Z,6.20
2019-03-27T06:29:51.129Z,6.20
2019-03-27T06:32:35.980Z,6.30
2019-03-27T06:35:20.969Z,6.30
2019-03-27T06:38:06.078Z,6.30
2019-03-27T06:40:50.965Z,6.40
2019-03-27T06:43:36.112Z,6.40
2019-03-27T06:46:21.251Z,6.40
2019-03-27T06:49:06.354Z,6.40
2019-03-27T06:51:51.038Z,6.40
2019-03-27T06:54:36.006Z,6.40
2019-03-27T06:57:20.684Z,6.40
2019-03-27T07:00:07.508Z,6.40
2019-03-27T07:02:52.201Z,6.40
2019-03-27T07:05:37.797Z,6.40
2019-03-27T07:08:22.662Z,6.50
2019-03-27T07:11:07.795Z,6.40
2019-03-27T07:13:52.480Z,6.30
2019-03-27T07:16:37.075Z,6.20
2019-03-27T07:19:21.752Z,6.10
2019-03-27T07:22:06.573Z,6.20
2019-03-27T07:24:51.137Z,6.20
2019-03-27T07:27:35.697Z,6.10
2019-03-27T07:30:20.220Z,6.10
2019-03-27T07:33:04.869Z,6.20
2019-03-27T07:35:49.519Z,6.20
2019-03-27T07:38:34.065Z,6.30
2019-03-27T07:41:18.508Z,6.20
2019-03-27T07:44:03.348Z,6.20
2019-03-27T07:46:48.495Z,6.20
2019-03-27T07:49:33.613Z,6.30
2019-03-27T07:52:18.190Z,6.30
2019-03-27T07:55:03.895Z,6.30
2019-03-27T07:57:48.759Z,6.40
2019-03-27T08:00:33.577Z,6.50
2019-03-27T08:03:18.004Z,6.50
2019-03-27T08:06:02.859Z,6.60
2019-03-27T08:08:47.395Z,6.60
2019-03-27T08:11:32.183Z,6.50
2019-03-27T08:14:16.872Z,6.60
2019-03-27T08:17:01.704Z,6.60
2019-03-27T08:19:46.257Z,6.70
2019-03-27T08:22:30.812Z,6.70
2019-03-27T08:25:15.562Z,6.70
2019-03-27T08:28:00.218Z,6.80
2019-03-27T08:30:45.121Z,6.80
2019-03-27T08:33:29.822Z,6.70
2019-03-27T08:36:14.507Z,6.70
2019-03-27T08:38:59.000Z,6.70
2019-03-27T08:41:43.754Z,6.80
2019-03-27T08:44:28.734Z,6.80
2019-03-27T08:47:13.776Z,6.70
2019-03-27T08:49:58.727Z,6.70
2019-03-27T08:52:43.457Z,6.70
2019-03-27T08:55:28.021Z,6.80
2019-03-27T08:58:13.138Z,6.90
2019-03-27T09:00:58.447Z,7.00
2019-03-27T09:03:43.424Z,7.20
2019-03-27T09:06:34.101Z,7.30
2019-03-27T09:09:15.242Z,7.50
2019-03-27T09:12:00.386Z,7.70
2019-03-27T09:14:45.396Z,7.80
2019-03-27T09:17:30.413Z,7.80
2019-03-27T09:20:16.339Z,7.80
2019-03-27T09:23:01.432Z,7.90
2019-03-27T09:25:46.586Z,8.00
2019-03-27T09:28:31.155Z,8.00
2019-03-27T09:31:16.055Z,8.00
2019-03-27T09:34:00.600Z,8.20
2019-03-27T09:36:45.072Z,8.30
2019-03-27T09:39:29.639Z,8.50
2019-03-27T09:42:14.168Z,8.50
2019-03-27T09:44:58.717Z,8.60
2019-03-27T09:47:43.170Z,8.60
2019-03-27T09:50:28.461Z,8.60
2019-03-27T09:53:13.482Z,8.60
2019-03-27T09:55:58.160Z,8.60
2019-03-27T09:58:42.694Z,8.50
2019-03-27T10:01:27.465Z,8.60
2019-03-27T10:04:12.482Z,8.80
2019-03-27T10:06:57.211Z,8.90
2019-03-27T10:09:41.794Z,9.10
2019-03-27T10:12:26.381Z,9.30
2019-03-27T10:15:11.165Z,9.40
2019-03-27T10:17:56.107Z,9.50
2019-03-27T10:20:41.112Z,9.60
2019-03-27T10:23:26.107Z,9.70
2019-03-27T10:26:10.701Z,9.80
2019-03-27T10:28:55.343Z,9.80
2019-03-27T10:31:40.418Z,10.00
2019-03-27T10:34:25.467Z,10.30
2019-03-27T10:37:10.452Z,10.50
2019-03-27T10:39:55.559Z,10.50
2019-03-27T10:42:40.547Z,10.20
2019-03-27T10:45:25.522Z,10.30
2019-03-27T10:48:10.142Z,10.40
2019-03-27T10:50:55.327Z,10.60
2019-03-27T10:53:40.389Z,10.50
2019-03-27T10:56:25.552Z,10.70
2019-03-27T10:59:10.742Z,10.80
2019-03-27T11:01:55.677Z,10.80
2019-03-27T11:04:40.229Z,10.90
2019-03-27T11:07:24.958Z,10.80
2019-03-27T11:10:10.881Z,10.70
2019-03-27T11:12:55.563Z,10.90
2019-03-27T11:15:40.307Z,10.70
2019-03-27T11:18:25.422Z,10.80
2019-03-27T11:21:10.462Z,10.80
2019-03-27T11:23:55.437Z,11.00
2019-03-27T11:26:40.585Z,11.10
2019-03-27T11:29:25.623Z,10.70
2019-03-27T11:32:10.309Z,10.70
2019-03-27T11:34:55.021Z,10.60
2019-03-27T11:37:39.592Z,10.60
2019-03-27T11:40:24.763Z,10.70
2019-03-27T11:43:09.413Z,10.90
2019-03-27T11:45:54.467Z,10.60
2019-03-27T11:48:39.603Z,10.90
2019-03-27T11:51:24.658Z,10.90
2019-03-27T11:54:09.518Z,11.00
2019-03-27T11:56:54.793Z,11.20
2019-03-27T11:59:52.875Z,11.30
2019-03-27T12:02:26.317Z,11.60
2019-03-27T12:05:11.826Z,11.90
2019-03-27T12:07:56.853Z,12.30
2019-03-27T12:10:41.337Z,12.50
2019-03-27T12:13:26.034Z,12.70
2019-03-27T12:16:10.604Z,12.60
2019-03-27T12:18:55.904Z,12.80
2019-03-27T12:21:40.719Z,12.70
2019-03-27T12:24:25.760Z,12.90
2019-03-27T12:27:10.598Z,13.00
2019-03-27T12:29:55.197Z,13.00
2019-03-27T12:32:40.099Z,12.90
2019-03-27T12:35:24.761Z,13.00
2019-03-27T12:38:10.030Z,13.20
2019-03-27T12:40:55.141Z,13.50
2019-03-27T12:43:40.210Z,14.10
2019-03-27T12:46:25.213Z,14.70
2019-03-27T12:49:09.783Z,15.30
2019-03-27T12:51:54.483Z,15.20
2019-03-27T12:54:39.403Z,15.00
2019-03-27T12:57:24.482Z,14.90
2019-03-27T13:00:09.799Z,15.00
2019-03-27T13:02:55.041Z,14.80
2019-03-27T13:05:39.990Z,14.90
2019-03-27T13:08:24.469Z,15.00
2019-03-27T13:11:09.563Z,14.60
2019-03-27T13:13:54.093Z,14.30
2019-03-27T13:16:38.801Z,13.60
2019-03-27T13:19:23.349Z,13.60
2019-03-27T13:22:07.880Z,13.80
2019-03-27T13:24:53.068Z,13.90
2019-03-27T13:27:38.633Z,14.20
2019-03-27T13:30:23.121Z,14.40
2019-03-27T13:33:07.688Z,14.60
2019-03-27T13:35:52.607Z,14.70
2019-03-27T13:38:37.555Z,15.00
2019-03-27T13:41:22.438Z,15.20
2019-03-27T13:44:07.279Z,15.00
2019-03-27T13:46:52.217Z,15.50
2019-03-27T13:49:37.238Z,15.60
2019-03-27T13:52:22.382Z,15.20
2019-03-27T13:55:08.161Z,15.00
2019-03-27T13:57:53.078Z,15.00
2019-03-27T14:00:38.276Z,14.80
2019-03-27T14:03:23.563Z,14.80
2019-03-27T14:06:08.523Z,14.80
2019-03-27T14:08:53.413Z,14.80
2019-03-27T14:11:38.037Z,14.60
2019-03-27T14:14:22.731Z,14.00
2019-03-27T14:17:07.635Z,13.70
2019-03-27T14:19:52.479Z,13.80
2019-03-27T14:22:37.331Z,13.50
2019-03-27T14:25:22.387Z,13.50
2019-03-27T14:28:07.498Z,13.30
2019-03-27T14:30:54.246Z,13.20
2019-03-27T14:33:38.903Z,13.40
2019-03-27T14:36:23.658Z,13.30
2019-03-27T14:39:08.862Z,13.30
2019-03-27T14:41:54.117Z,13.60
2019-03-27T14:44:39.142Z,13.70
2019-03-27T14:47:23.871Z,13.80
2019-03-27T14:50:09.066Z,13.80
2019-03-27T14:52:53.778Z,13.80
2019-03-27T14:55:39.052Z,13.80
2019-03-27T14:58:23.971Z,13.90
2019-03-27T15:01:08.721Z,14.00
2019-03-27T15:03:53.763Z,14.20
2019-03-27T15:06:38.511Z,14.40
2019-03-27T15:09:23.367Z,14.40
2019-03-27T15:12:08.815Z,14.30
2019-03-27T15:14:53.622Z,14.10
2019-03-27T15:17:38.575Z,14.20
2019-03-27T15:20:24.004Z,14.40
2019-03-27T15:23:09.262Z,14.60
2019-03-27T15:25:54.291Z,14.70
2019-03-27T15:28:39.194Z,14.60
2019-03-27T15:31:24.101Z,14.60
2019-03-27T15:34:09.098Z,14.60
2019-03-27T15:36:53.817Z,14.50
2019-03-27T15:39:38.775Z,14.50
2019-03-27T15:42:23.566Z,14.50
2019-03-27T15:45:09.094Z,14.50
2019-03-27T15:47:53.661Z,14.50
2019-03-27T15:50:38.441Z,14.30
2019-03-27T15:53:23.447Z,14.10
2019-03-27T15:56:08.528Z,13.90
2019-03-27T15:58:56.160Z,13.60
2019-03-27T16:01:40.170Z,13.40
2019-03-27T16:04:24.976Z,13.30
2019-03-27T16:07:10.189Z,13.20
2019-03-27T16:09:55.250Z,13.10
2019-03-27T16:12:40.324Z,13.20
2019-03-27T16:15:25.438Z,13.20
2019-03-27T16:18:10.566Z,13.50
2019-03-27T16:20:55.383Z,14.30
2019-03-27T16:23:40.427Z,15.20
2019-03-27T16:26:25.267Z,15.50
2019-03-27T16:29:10.400Z,15.40
2019-03-27T16:31:55.309Z,14.90
2019-03-27T16:34:39.963Z,14.40
2019-03-27T16:37:25.357Z,13.80
2019-03-27T16:40:11.012Z,13.30
2019-03-27T16:42:56.221Z,13.00
2019-03-27T16:45:41.132Z,12.70
2019-03-27T16:48:26.235Z,12.50
2019-03-27T16:51:10.952Z,12.30
2019-03-27T16:53:56.016Z,12.10
2019-03-27T16:56:41.025Z,11.90
2019-03-27T16:59:26.152Z,11.90
2019-03-27T17:02:10.915Z,11.80
2019-03-27T17:04:55.977Z,11.60
2019-03-27T17:07:41.286Z,11.40
2019-03-27T17:10:26.267Z,11.30
2019-03-27T17:13:11.516Z,11.10
2019-03-27T17:15:56.459Z,11.00
2019-03-27T17:18:41.734Z,10.90
2019-03-27T17:21:26.655Z,10.80
2019-03-27T17:24:11.637Z,10.70
2019-03-27T17:26:56.848Z,10.70
2019-03-27T17:29:41.781Z,10.70
2019-03-27T17:32:27.137Z,10.70
2019-03-27T17:35:12.257Z,10.60
2019-03-27T17:37:57.143Z,10.50
2019-03-27T17:40:42.421Z,10.60
2019-03-27T17:43:27.611Z,10.50
2019-03-27T17:46:12.717Z,10.40
2019-03-27T17:48:57.729Z,10.40
2019-03-27T17:51:42.872Z,10.40
2019-03-27T17:54:28.095Z,10.40
2019-03-27T17:57:13.099Z,10.30
2019-03-27T17:59:58.176Z,10.30
2019-03-27T18:02:43.068Z,10.20
2019-03-27T18:05:27.936Z,10.20
2019-03-27T18:08:12.707Z,10.20
2019-03-27T18:10:58.010Z,10.10
2019-03-27T18:13:43.106Z,10.10
2019-03-27T18:16:28.155Z,10.00
2019-03-27T18:19:15.318Z,10.00
2019-03-27T18:22:07.575Z,9.90
2019-03-27T18:24:46.824Z,9.90
2019-03-27T18:27:31.885Z,9.80
2019-03-27T18:30:17.084Z,9.70
2019-03-27T18:33:01.930Z,9.70
2019-03-27T18:35:47.161Z,9.60
2019-03-27T18:38:32.206Z,9.50
2019-03-27T18:41:16.839Z,9.40
2019-03-27T18:44:03.297Z,9.30
2019-03-27T18:46:48.450Z,9.20
2019-03-27T18:49:33.665Z,9.20
2019-03-27T18:52:18.540Z,9.20
2019-03-27T18:55:04.731Z,9.20
2019-03-27T18:58:00.181Z,9.30
2019-03-27T19:00:36.959Z,9.20
2019-03-27T19:03:22.446Z,9.20
2019-03-27T19:06:07.078Z,9.20
2019-03-27T19:08:52.316Z,9.20
2019-03-27T19:11:37.326Z,9.20
2019-03-27T19:14:22.402Z,9.20
2019-03-27T19:17:07.356Z,9.20
2019-03-27T19:19:52.566Z,9.20
2019-03-27T19:22:37.454Z,9.20
2019-03-27T19:25:22.575Z,9.20
2019-03-27T19:28:07.662Z,9.30
2019-03-27T19:30:52.765Z,9.30
2019-03-27T19:33:37.950Z,9.30
2019-03-27T19:36:23.099Z,9.30
2019-03-27T19:39:08.393Z,9.30
2019-03-27T19:41:53.548Z,9.30
2019-03-27T19:44:38.541Z,9.30
2019-03-27T19:47:23.666Z,9.30
2019-03-27T19:50:09.057Z,9.30
2019-03-27T19:52:53.716Z,9.40
2019-03-27T19:55:39.017Z,9.40
2019-03-27T19:58:23.819Z,9.40
2019-03-27T20:01:08.659Z,9.40
2019-03-27T20:03:53.546Z,9.40
2019-03-27T20:06:38.870Z,9.40
2019-03-27T20:09:23.764Z,9.40
2019-03-27T20:12:08.757Z,9.30
2019-03-27T20:14:53.695Z,9.30
2019-03-27T20:17:38.874Z,9.30
2019-03-27T20:20:24.197Z,9.30
2019-03-27T20:23:14.875Z,9.30
2019-03-27T20:25:55.972Z,9.20
2019-03-27T20:28:41.005Z,9.20
2019-03-27T20:31:26.155Z,9.30
2019-03-27T20:34:11.387Z,9.30
2019-03-27T20:36:56.347Z,9.20
2019-03-27T20:39:42.830Z,9.20
2019-03-27T20:42:27.564Z,9.20
2019-03-27T20:45:13.024Z,9.30
2019-03-27T20:47:57.844Z,9.20
2019-03-27T20:50:42.351Z,9.30
2019-03-27T20:53:27.597Z,9.30
2019-03-27T20:56:12.331Z,9.40
2019-03-27T20:58:57.446Z,9.40
2019-03-27T21:01:42.477Z,9.40
2019-03-27T21:04:27.465Z,9.40
2019-03-27T21:07:12.974Z,9.40
2019-03-27T21:09:58.128Z,9.50
2019-03-27T21:12:43.561Z,9.50
2019-03-27T21:15:28.517Z,9.50
2019-03-27T21:18:13.657Z,9.50
2019-03-27T21:20:58.566Z,9.50
2019-03-27T21:23:43.976Z,9.40
2019-03-27T21:26:29.017Z,9.40
2019-03-27T21:29:13.879Z,9.40
2019-03-27T21:31:59.240Z,9.40
2019-03-27T21:34:44.265Z,9.40
2019-03-27T21:37:29.337Z,9.40
2019-03-27T21:40:13.999Z,9.50
2019-03-27T21:42:59.081Z,9.50
2019-03-27T21:45:44.160Z,9.50
2019-03-27T21:48:29.430Z,9.50
2019-03-27T21:51:14.190Z,9.50
2019-03-27T21:53:59.482Z,9.40
2019-03-27T21:56:44.606Z,9.40
2019-03-27T21:59:29.785Z,9.40
2019-03-27T22:02:14.823Z,9.30
2019-03-27T22:04:59.948Z,9.30
2019-03-27T22:07:44.795Z,9.30
2019-03-27T22:10:29.572Z,9.20
2019-03-27T22:13:14.465Z,9.20
2019-03-27T22:15:59.706Z,9.20
2019-03-27T22:18:44.563Z,9.20
2019-03-27T22:21:29.359Z,9.20
2019-03-27T22:24:14.458Z,9.00
2019-03-27T22:26:59.415Z,9.00
2019-03-27T22:29:44.180Z,9.00
2019-03-27T22:32:29.299Z,8.90
2019-03-27T22:35:14.388Z,8.90
2019-03-27T22:37:59.116Z,8.90
2019-03-27T22:40:44.333Z,8.90
2019-03-27T22:43:29.614Z,9.00
2019-03-27T22:46:14.890Z,9.00
2019-03-27T22:51:53.117Z,9.00
2019-03-27T22:54:38.025Z,9.00
2019-03-27T22:57:23.403Z,9.00
2019-03-27T23:00:09.032Z,9.00
2019-03-27T23:02:54.065Z,9.00
2019-03-27T23:05:38.778Z,9.00
2019-03-27T23:08:23.789Z,8.90
2019-03-27T23:11:08.724Z,9.00
2019-03-27T23:13:53.280Z,9.00
2019-03-27T23:16:38.547Z,9.10
2019-03-27T23:19:23.445Z,9.10
2019-03-27T23:22:08.768Z,9.10
2019-03-27T23:24:53.654Z,9.10
2019-03-27T23:27:38.450Z,9.10
2019-03-27T23:30:23.584Z,9.10
2019-03-27T23:33:08.883Z,9.00
2019-03-27T23:35:53.827Z,9.00
2019-03-27T23:38:38.688Z,8.90
2019-03-27T23:41:23.371Z,8.90
2019-03-27T23:44:07.908Z,8.90
2019-03-27T23:46:52.714Z,8.90
2019-03-27T23:49:37.637Z,8.80
2019-03-27T23:52:22.944Z,8.80
2019-03-27T23:55:08.192Z,8.80
2019-03-27T23:57:53.233Z,8.90
